Time;durP1;ratioP1;P1;durP2;ratioP2;P2;SDS_P1;SDS_P2;PMS_P1;PMS_P2;Temp;Humidity;BMP_temperature;BMP_pressure;BME280_temperature;BME280_humidity;BME280_pressure;Samples;Min_cycle;Max_cycle;Signal;HPM_P1;HPM_P2
2022/08/08 00:01:56;;;;;;;1.92;0.82;;;;;;;22.86;44.72;100518.69;5046396;28;20087;-76
2022/08/08 00:04:36;;;;;;;1.95;0.93;;;;;;;22.87;44.73;100534.91;5031339;28;20021;-82
2022/08/08 00:07:07;;;;;;;1.50;0.77;;;;;;;22.86;44.78;100532.38;5031436;28;20029;-81
2022/08/08 00:09:51;;;;;;;3.20;1.23;;;;;;;22.83;44.61;100528.13;5031142;28;20036;-82
2022/08/08 00:12:22;;;;;;;2.85;0.98;;;;;;;22.66;44.68;100499.50;5026303;28;20033;-82
2022/08/08 00:14:58;;;;;;;1.98;0.82;;;;;;;22.80;44.78;100525.00;5025788;28;20029;-82
2022/08/08 00:17:29;;;;;;;1.75;1.10;;;;;;;22.77;44.74;100520.78;5027947;28;20083;-75
2022/08/08 00:20:01;;;;;;;4.13;1.23;;;;;;;22.55;44.79;100488.34;5027350;28;20055;-76
2022/08/08 00:22:34;;;;;;;4.22;1.00;;;;;;;22.59;44.77;100501.38;5046015;28;20067;-76
2022/08/08 00:25:07;;;;;;;2.22;0.95;;;;;;;22.67;44.61;100531.28;5031391;28;20094;-75
2022/08/08 00:27:36;;;;;;;4.33;1.20;;;;;;;22.59;44.77;100517.78;5029405;28;20046;-76
2022/08/08 00:30:08;;;;;;;5.10;1.25;;;;;;;22.62;44.89;100522.00;5026674;28;20044;-75
2022/08/08 00:32:44;;;;;;;3.35;1.30;;;;;;;22.48;44.67;100503.84;5030773;28;20022;-75
2022/08/08 00:35:19;;;;;;;2.58;0.90;;;;;;;22.54;44.85;100528.53;5026608;28;20091;-76
2022/08/08 00:38:26;;;;;;;3.00;0.90;;;;;;;22.49;44.87;100522.81;5029394;28;20033;-75
2022/08/08 00:41:10;;;;;;;1.70;1.15;;;;;;;22.46;44.98;100525.94;5033223;28;20049;-76
2022/08/08 00:44:38;;;;;;;4.82;0.80;;;;;;;22.41;44.84;100528.47;5029286;28;20049;-76
2022/08/08 00:47:15;;;;;;;2.35;0.90;;;;;;;22.39;44.79;100527.81;4975704;28;20532;-76
2022/08/08 00:50:10;;;;;;;3.35;1.00;;;;;;;22.38;44.67;100528.00;5020464;28;20491;-76
2022/08/08 00:52:41;;;;;;;1.75;0.70;;;;;;;22.37;44.39;100521.69;5027833;28;20053;-76
2022/08/08 00:55:19;;;;;;;2.97;1.13;;;;;;;22.38;44.47;100526.13;5029049;28;20068;-76
2022/08/08 00:58:22;;;;;;;1.75;1.17;;;;;;;22.38;44.39;100523.41;5027277;28;20041;-75
2022/08/08 01:01:16;;;;;;;1.67;0.98;;;;;;;22.38;44.02;100530.75;5025672;28;20109;-76
2022/08/08 01:03:41;;;;;;;0.80;0.70;;;;;;;22.38;43.99;100525.28;5028848;28;21091;-76
2022/08/08 01:06:58;;;;;;;3.80;0.98;;;;;;;22.34;44.00;100524.84;5030270;28;20033;-75
2022/08/08 01:09:29;;;;;;;2.78;0.90;;;;;;;22.35;43.95;100519.16;5017873;28;20724;-76
2022/08/08 01:12:13;;;;;;;3.75;0.73;;;;;;;22.34;43.99;100524.84;5029871;28;20390;-76
2022/08/08 01:14:56;;;;;;;1.20;0.85;;;;;;;22.32;43.84;100518.75;5030115;28;20467;-75
2022/08/08 01:17:37;;;;;;;4.33;1.07;;;;;;;22.31;43.72;100520.63;5028640;28;20025;-82
2022/08/08 01:20:40;;;;;;;2.63;0.93;;;;;;;22.29;43.64;100528.19;5030277;28;20487;-82
2022/08/08 01:23:37;;;;;;;2.88;1.02;;;;;;;22.31;43.57;100528.84;5028167;28;20034;-82
2022/08/08 01:26:37;;;;;;;0.80;0.77;;;;;;;22.12;43.49;100485.06;5029791;28;20056;-81
2022/08/08 01:29:03;;;;;;;3.75;1.00;;;;;;;22.29;43.63;100516.44;5015623;28;20773;-81
2022/08/08 01:31:44;;;;;;;4.07;0.90;;;;;;;22.26;43.48;100511.38;5028760;28;20116;-82
2022/08/08 01:34:47;;;;;;;2.40;0.90;;;;;;;22.25;43.44;100510.50;5029319;28;20021;-82
2022/08/08 01:37:15;;;;;;;2.47;0.75;;;;;;;22.24;43.51;100503.38;5025462;28;20025;-76
2022/08/08 01:39:52;;;;;;;2.78;0.88;;;;;;;22.24;43.39;100513.44;5028224;28;20432;-75
2022/08/08 01:43:00;;;;;;;4.28;0.90;;;;;;;22.06;43.18;100485.88;5025466;28;20384;-75
2022/08/08 01:45:51;;;;;;;1.48;0.60;;;;;;;22.25;43.27;100520.63;5029721;28;20116;-75
2022/08/08 01:48:52;;;;;;;1.73;0.90;;;;;;;22.20;43.26;100514.91;5028095;28;20033;-76
2022/08/08 01:51:57;;;;;;;1.77;0.77;;;;;;;22.24;43.12;100527.97;5018631;28;20045;-76
2022/08/08 01:54:41;;;;;;;2.15;0.85;;;;;;;22.23;43.29;100533.63;5007157;28;20700;-76
2022/08/08 01:57:26;;;;;;;2.83;0.90;;;;;;;22.22;43.33;100537.44;5027769;28;20033;-75
2022/08/08 02:00:00;;;;;;;2.55;0.90;;;;;;;22.21;43.36;100539.31;5026585;28;20052;-76
2022/08/08 02:02:44;;;;;;;1.05;0.70;;;;;;;22.18;43.48;100538.84;5026765;28;20033;-75
2022/08/08 02:05:44;;;;;;;2.60;1.08;;;;;;;22.18;43.22;100539.72;5022872;28;20034;-75
2022/08/08 02:08:19;;;;;;;2.97;0.77;;;;;;;22.17;43.23;100526.25;5026400;28;20029;-76
2022/08/08 02:10:54;;;;;;;3.65;0.80;;;;;;;22.07;43.46;100506.66;5026476;28;20087;-76
2022/08/08 02:13:56;;;;;;;3.13;1.00;;;;;;;22.13;43.44;100516.78;5026843;28;20036;-76
2022/08/08 02:16:39;;;;;;;1.55;0.57;;;;;;;22.15;43.53;100511.94;5042569;28;20109;-75
2022/08/08 02:19:16;;;;;;;2.47;0.65;;;;;;;22.13;43.50;100517.63;5038909;28;20033;-76
2022/08/08 02:22:30;;;;;;;1.98;1.00;;;;;;;22.12;43.46;100515.09;5026803;28;20390;-76
2022/08/08 02:25:09;;;;;;;2.53;1.03;;;;;;;22.04;43.35;100512.53;5025519;28;20080;-76
2022/08/08 02:28:09;;;;;;;2.72;0.90;;;;;;;22.11;43.48;100521.59;5024983;28;20503;-76
2022/08/08 02:30:52;;;;;;;2.53;0.77;;;;;;;21.97;43.53;100507.06;5017711;28;20076;-76
2022/08/08 02:33:43;;;;;;;3.13;0.80;;;;;;;21.99;43.58;100513.16;5019113;28;20125;-82
2022/08/08 02:36:27;;;;;;;1.58;0.68;;;;;;;22.07;43.73;100520.31;5001030;28;20045;-82
2022/08/08 02:39:11;;;;;;;0.93;0.60;;;;;;;21.92;43.66;100497.78;5014878;28;20049;-82
2022/08/08 02:42:05;;;;;;;2.30;0.90;;;;;;;22.02;43.64;100520.94;5008849;28;20022;-81
2022/08/08 02:44:56;;;;;;;1.25;0.77;;;;;;;22.03;43.92;100519.88;5023442;28;20040;-73
2022/08/08 02:47:55;;;;;;;1.20;0.60;;;;;;;21.92;44.13;100504.09;5040779;28;20491;-74
2022/08/08 02:50:42;;;;;;;1.25;0.70;;;;;;;21.98;44.20;100522.41;5020856;28;20037;-73
2022/08/08 02:53:29;;;;;;;4.30;1.20;;;;;;;21.97;44.32;100519.88;5016591;28;20033;-74
2022/08/08 02:56:33;;;;;;;5.85;1.30;;;;;;;21.95;44.14;100532.88;5024755;28;20033;-74
2022/08/08 02:59:28;;;;;;;3.28;0.85;;;;;;;21.93;44.40;100524.88;5020229;28;20076;-73
2022/08/08 03:02:06;;;;;;;4.57;1.00;;;;;;;21.91;44.48;100518.78;5013754;28;20053;-74
2022/08/08 03:05:12;;;;;;;2.45;1.02;;;;;;;21.90;44.41;100510.81;5012173;28;20081;-74
2022/08/08 03:07:53;;;;;;;0.90;0.70;;;;;;;21.89;44.37;100509.94;5011938;28;20404;-72
2022/08/08 03:10:37;;;;;;;2.15;0.80;;;;;;;21.90;44.50;100505.34;5014653;28;20068;-72
2022/08/08 03:13:25;;;;;;;7.78;1.33;;;;;;;21.88;44.36;100516.47;5002369;28;20077;-72
2022/08/08 03:16:18;;;;;;;2.22;0.80;;;;;;;21.87;44.52;100527.59;5011488;28;20028;-72
2022/08/08 03:18:53;;;;;;;1.70;0.90;;;;;;;21.85;44.47;100533.25;5030147;28;20053;-72
2022/08/08 03:21:18;;;;;;;4.00;0.80;;;;;;;21.81;44.38;100548.38;5016481;28;20075;-72
2022/08/08 03:23:44;;;;;;;2.85;1.00;;;;;;;21.74;44.45;100541.19;5002934;28;20427;-72
2022/08/08 03:26:11;;;;;;;1.23;0.98;;;;;;;21.73;44.56;100553.16;5016699;28;20033;-71
2022/08/08 03:28:44;;;;;;;2.70;0.95;;;;;;;21.80;44.63;100560.31;5020143;28;20048;-72
2022/08/08 03:33:56;;;;;;;2.10;0.63;;;;;;;21.68;45.07;100561.91;5025020;28;20076;-72
2022/08/08 03:36:23;;;;;;;11.73;1.50;;;;;;;21.56;45.06;100555.31;5018910;28;20444;-72
2022/08/08 03:38:51;;;;;;;3.05;0.90;;;;;;;21.52;45.30;100547.72;5013960;28;20018;-72
2022/08/08 03:41:17;;;;;;;4.30;1.10;;;;;;;21.54;45.60;100571.03;5019779;28;20017;-73
2022/08/08 03:43:54;;;;;;;8.15;1.48;;;;;;;21.47;45.87;100564.69;5019017;28;20729;-72
2022/08/08 03:46:20;;;;;;;5.95;1.00;;;;;;;21.37;45.70;100539.63;5029691;28;20434;-72
2022/08/08 03:49:03;;;;;;;5.22;1.17;;;;;;;21.49;45.57;100559.03;5031005;28;20025;-72
2022/08/08 03:51:29;;;;;;;5.10;1.15;;;;;;;21.48;45.64;100554.63;5031177;28;20030;-73
2022/08/08 03:53:54;;;;;;;3.17;1.00;;;;;;;21.49;45.73;100546.22;5030708;28;20029;-72
2022/08/08 03:56:21;;;;;;;6.45;1.00;;;;;;;21.55;45.65;100550.03;5029630;28;20112;-71
2022/08/08 03:58:52;;;;;;;8.45;1.13;;;;;;;21.48;45.67;100528.16;5029480;28;20041;-72
2022/08/08 04:01:20;;;;;;;5.30;1.25;;;;;;;21.51;45.72;100511.38;5028354;28;20030;-72
2022/08/08 04:03:48;;;;;;;8.60;1.35;;;;;;;21.68;45.61;100523.69;5044852;28;20029;-71
2022/08/08 04:06:14;;;;;;;5.22;1.00;;;;;;;21.72;45.82;100533.16;5030369;28;20539;-72
2022/08/08 04:08:40;;;;;;;7.28;1.30;;;;;;;21.78;45.60;100531.53;5029450;28;20021;-72
2022/08/08 04:11:07;;;;;;;2.85;1.30;;;;;;;21.66;45.95;100513.97;5029301;28;20119;-72
2022/08/08 04:13:33;;;;;;;5.43;1.20;;;;;;;21.83;45.84;100549.00;5030777;28;20044;-72
2022/08/08 04:15:58;;;;;;;4.32;1.40;;;;;;;21.72;46.04;100519.50;5030579;28;20033;-73
2022/08/08 04:18:25;;;;;;;13.38;1.40;;;;;;;21.78;45.76;100528.78;5029990;28;20053;-72
2022/08/08 04:20:51;;;;;;;4.50;1.08;;;;;;;21.89;45.59;100539.13;5028964;28;20028;-72
2022/08/08 04:23:17;;;;;;;2.83;0.90;;;;;;;21.90;45.69;100538.94;5025358;28;20057;-72
2022/08/08 04:25:42;;;;;;;3.40;1.00;;;;;;;21.80;45.78;100524.00;5029760;28;20117;-72
2022/08/08 04:28:09;;;;;;;9.07;1.30;;;;;;;21.94;45.36;100556.63;5030097;28;20144;-72
2022/08/08 04:30:35;;;;;;;4.55;1.27;;;;;;;21.99;45.50;100556.03;5028644;28;20034;-72
2022/08/08 04:33:01;;;;;;;1.98;0.80;;;;;;;22.01;45.49;100559.38;5028900;28;20471;-72
2022/08/08 04:35:27;;;;;;;4.63;1.00;;;;;;;21.98;45.40;100546.13;5028950;28;20037;-72
2022/08/08 04:37:53;;;;;;;5.28;1.58;;;;;;;22.03;45.60;100558.13;5030096;28;20044;-72
2022/08/08 04:40:19;;;;;;;8.05;1.60;;;;;;;22.07;45.34;100564.03;5029620;28;20040;-72
2022/08/08 04:42:46;;;;;;;3.92;1.27;;;;;;;22.04;45.54;100548.06;5029960;28;20041;-73
2022/08/08 04:45:12;;;;;;;5.57;1.00;;;;;;;22.01;45.78;100543.00;5029784;28;20483;-72
2022/08/08 04:47:37;;;;;;;6.40;1.50;;;;;;;22.14;45.77;100562.19;5027520;28;20056;-71
2022/08/08 04:50:03;;;;;;;9.80;1.23;;;;;;;22.17;45.31;100568.09;5030864;28;20124;-72
2022/08/08 04:52:29;;;;;;;6.25;1.25;;;;;;;22.20;45.44;100566.84;5029804;28;20025;-72
2022/08/08 04:54:54;;;;;;;3.47;1.10;;;;;;;22.19;45.19;100568.72;5028545;28;20033;-72
2022/08/08 04:57:20;;;;;;;7.72;1.38;;;;;;;22.20;45.18;100569.56;5028628;28;20028;-72
2022/08/08 04:59:45;;;;;;;8.48;1.73;;;;;;;22.18;44.97;100552.53;5028475;28;20120;-72
2022/08/08 05:02:11;;;;;;;13.95;1.48;;;;;;;22.25;45.16;100562.44;5043732;28;20021;-72
2022/08/08 05:04:36;;;;;;;4.20;1.38;;;;;;;22.31;45.15;100574.44;5019979;28;20033;-72
2022/08/08 05:07:02;;;;;;;2.20;1.10;;;;;;;22.27;45.07;100568.56;5019301;28;20057;-72
2022/08/08 05:09:28;;;;;;;10.88;1.45;;;;;;;22.27;45.34;100564.97;5027439;28;20040;-76
2022/08/08 05:11:54;;;;;;;9.55;1.65;;;;;;;22.06;45.32;100518.66;5028505;28;20026;-76
2022/08/08 05:14:20;;;;;;;10.68;1.50;;;;;;;22.34;45.29;100569.41;5023989;28;20850;-75
2022/08/08 05:16:45;;;;;;;14.20;2.33;;;;;;;22.12;45.27;100535.06;5025641;28;20029;-75
2022/08/08 05:19:11;;;;;;;17.95;2.25;;;;;;;22.32;45.50;100568.78;5026131;28;20020;-75
2022/08/08 05:21:41;;;;;;;8.93;1.55;;;;;;;22.21;45.58;100546.66;5027754;28;20055;-76
2022/08/08 05:24:08;;;;;;;6.57;1.33;;;;;;;22.29;45.87;100563.72;5026925;28;20048;-76
2022/08/08 05:26:35;;;;;;;11.15;1.60;;;;;;;22.16;46.07;100543.72;5028257;28;20046;-76
2022/08/08 05:29:02;;;;;;;8.23;1.55;;;;;;;22.32;45.96;100567.94;5028207;28;20052;-75
2022/08/08 05:31:31;;;;;;;12.30;1.75;;;;;;;22.23;45.90;100556.34;5026940;28;20014;-76
2022/08/08 05:33:56;;;;;;;6.43;1.33;;;;;;;22.35;45.94;100573.00;5028024;28;20503;-76
2022/08/08 05:36:25;;;;;;;5.35;1.25;;;;;;;22.16;46.21;100538.25;5043544;28;20036;-75
2022/08/08 05:38:51;;;;;;;3.85;1.23;;;;;;;22.42;46.19;100588.38;5028237;28;20033;-76
2022/08/08 05:41:22;;;;;;;4.25;1.33;;;;;;;22.41;46.43;100585.88;5027948;28;20049;-75
2022/08/08 05:43:48;;;;;;;3.33;1.00;;;;;;;22.38;46.04;100581.63;5043293;28;20364;-76
2022/08/08 05:46:15;;;;;;;9.57;1.63;;;;;;;22.41;45.98;100587.75;5026737;28;20051;-75
2022/08/08 05:48:42;;;;;;;3.78;1.27;;;;;;;22.45;46.06;100578.06;5026559;28;20399;-76
2022/08/08 05:51:08;;;;;;;2.55;1.20;;;;;;;22.49;45.76;100584.81;5043348;28;20075;-75
2022/08/08 05:53:33;;;;;;;16.95;2.28;;;;;;;22.45;45.83;100575.34;5028349;28;20037;-75
2022/08/08 05:56:00;;;;;;;9.85;1.63;;;;;;;22.52;45.84;100592.66;5026586;28;20094;-76
2022/08/08 05:58:31;;;;;;;7.72;1.48;;;;;;;22.57;45.45;100590.16;5026741;28;20083;-76
2022/08/08 06:00:59;;;;;;;7.40;1.30;;;;;;;22.38;45.37;100561.66;5023092;28;20235;-75
2022/08/08 06:03:25;;;;;;;5.05;1.30;;;;;;;22.69;45.42;100594.81;5027893;28;20036;-75
2022/08/08 06:06:00;;;;;;;6.32;1.30;;;;;;;22.73;45.34;100596.06;5027606;28;20053;-75
2022/08/08 06:08:34;;;;;;;6.55;1.48;;;;;;;22.71;45.05;100580.94;5043183;28;20025;-75
2022/08/08 06:11:01;;;;;;;2.95;1.02;;;;;;;22.67;45.07;100569.56;5026369;28;20458;-76
2022/08/08 06:13:28;;;;;;;5.95;1.30;;;;;;;22.99;44.62;100607.06;5027845;28;20029;-75
2022/08/08 06:15:54;;;;;;;5.32;1.27;;;;;;;23.09;44.25;100591.13;5043110;28;20120;-76
2022/08/08 06:18:23;;;;;;;8.57;1.48;;;;;;;23.23;43.74;100592.00;5026506;28;20037;-75
2022/08/08 06:20:52;;;;;;;5.78;1.38;;;;;;;23.51;43.06;100617.28;5023543;28;20029;-76
2022/08/08 06:23:18;;;;;;;9.80;1.38;;;;;;;23.57;42.38;100620.00;5031508;28;20410;-76
2022/08/08 06:25:50;;;;;;;12.18;1.50;;;;;;;23.57;42.52;100598.09;5031570;28;20033;-76
2022/08/08 06:28:32;;;;;;;9.35;1.35;;;;;;;23.82;42.72;100615.56;5029867;28;20436;-75
2022/08/08 06:31:02;;;;;;;10.98;1.30;;;;;;;23.92;42.20;100618.69;5018656;28;20095;-75
2022/08/08 06:33:38;;;;;;;3.22;1.00;;;;;;;23.94;41.59;100616.63;5021057;28;20037;-76
2022/08/08 06:36:05;;;;;;;1.83;1.17;;;;;;;24.11;41.46;100636.19;5027654;28;20611;-76
2022/08/08 06:38:35;;;;;;;4.25;1.50;;;;;;;24.08;41.30;100611.94;5031208;28;20103;-76
2022/08/08 06:41:05;;;;;;;7.25;1.13;;;;;;;24.26;41.21;100628.56;5028454;28;20087;-76
2022/08/08 06:43:34;;;;;;;8.38;1.67;;;;;;;24.09;40.72;100600.78;5044725;28;20040;-76
2022/08/08 06:46:01;;;;;;;4.15;1.17;;;;;;;24.32;40.95;100617.56;5030451;28;20045;-76
2022/08/08 06:48:28;;;;;;;5.80;1.52;;;;;;;24.37;40.88;100612.28;5029607;28;20053;-76
2022/08/08 06:50:54;;;;;;;3.88;1.33;;;;;;;24.43;40.95;100586.75;5031184;28;20415;-76
2022/08/08 06:53:20;;;;;;;1.42;1.13;;;;;;;24.77;40.69;100625.84;5029603;28;20402;-76
2022/08/08 06:55:46;;;;;;;3.67;1.00;;;;;;;24.98;40.24;100623.63;5029779;28;20029;-76
2022/08/08 06:58:13;;;;;;;5.57;1.40;;;;;;;25.10;39.91;100612.78;5022614;28;20025;-76
2022/08/08 07:00:39;;;;;;;4.18;1.55;;;;;;;25.18;39.75;100604.28;5024270;28;20037;-76
2022/08/08 07:03:10;;;;;;;6.22;1.50;;;;;;;25.47;39.65;100628.41;5026906;28;20109;-76
2022/08/08 07:05:39;;;;;;;2.85;1.05;;;;;;;25.51;39.40;100629.63;5011551;28;20650;-74
2022/08/08 07:08:23;;;;;;;3.92;1.35;;;;;;;25.49;39.56;100613.38;5042848;28;20072;-73
2022/08/08 07:10:49;;;;;;;4.63;1.15;;;;;;;25.81;39.19;100639.72;5029730;28;20439;-76
2022/08/08 07:13:18;;;;;;;3.15;0.90;;;;;;;25.82;39.07;100611.16;5030449;28;20403;-76
2022/08/08 07:15:56;;;;;;;1.77;1.17;;;;;;;25.81;38.67;100587.50;5029004;28;20099;-76
2022/08/08 07:18:34;;;;;;;2.88;1.35;;;;;;;26.15;38.52;100635.59;5029084;28;20521;-77
2022/08/08 07:21:05;;;;;;;3.33;1.15;;;;;;;25.95;38.67;100601.91;5028099;28;20164;-81
2022/08/08 07:23:34;;;;;;;6.00;1.23;;;;;;;26.07;38.72;100634.00;5031528;28;20478;-82
2022/08/08 07:26:02;;;;;;;4.57;1.15;;;;;;;25.89;38.96;100625.66;5026342;28;20036;-79
2022/08/08 07:28:28;;;;;;;4.05;0.80;;;;;;;25.82;39.18;100626.78;5028902;28;20095;-79
2022/08/08 07:30:54;;;;;;;6.22;1.40;;;;;;;25.77;39.27;100632.16;5030425;28;20033;-79
2022/08/08 07:33:23;;;;;;;3.50;0.95;;;;;;;25.71;39.36;100627.53;5029021;28;20029;-81
2022/08/08 07:35:49;;;;;;;1.63;1.02;;;;;;;25.69;39.39;100630.50;5029488;28;20119;-81
2022/08/08 07:38:19;;;;;;;9.48;1.77;;;;;;;25.71;39.60;100642.13;5028895;28;20025;-77
2022/08/08 07:40:45;;;;;;;6.82;1.40;;;;;;;25.65;39.30;100647.66;5029714;28;20399;-76
2022/08/08 07:43:12;;;;;;;2.55;1.10;;;;;;;25.69;39.42;100647.00;5029696;28;20051;-76
2022/08/08 07:45:39;;;;;;;2.72;1.42;;;;;;;25.70;39.59;100634.13;5030610;28;20056;-76
2022/08/08 07:48:05;;;;;;;5.47;1.20;;;;;;;25.79;39.90;100644.59;5030783;28;20383;-76
2022/08/08 07:50:37;;;;;;;3.95;1.20;;;;;;;25.97;39.70;100646.56;5038386;28;20035;-76
2022/08/08 07:53:17;;;;;;;3.10;1.27;;;;;;;26.04;39.04;100641.84;5026246;28;20021;-76
2022/08/08 07:55:44;;;;;;;4.63;1.10;;;;;;;26.21;38.83;100635.53;5028174;28;20029;-76
2022/08/08 07:58:26;;;;;;;2.45;1.00;;;;;;;26.23;38.81;100633.41;5029365;28;20044;-76
2022/08/08 08:00:58;;;;;;;4.95;1.25;;;;;;;26.37;38.29;100647.81;5027836;28;20505;-74
2022/08/08 08:03:39;;;;;;;4.32;1.27;;;;;;;26.43;38.09;100636.75;5030778;28;20124;-74
2022/08/08 08:06:05;;;;;;;5.13;1.02;;;;;;;26.45;38.21;100612.63;5040925;28;20063;-76
2022/08/08 08:08:34;;;;;;;2.88;1.20;;;;;;;26.75;37.84;100667.72;5029514;28;20084;-76
2022/08/08 08:10:59;;;;;;;6.00;1.25;;;;;;;26.63;37.93;100646.72;5030570;28;20033;-77
2022/08/08 08:13:28;;;;;;;2.88;1.20;;;;;;;26.80;37.89;100659.63;5030595;28;20041;-76
2022/08/08 08:16:08;;;;;;;4.82;1.25;;;;;;;26.81;38.03;100665.94;5029107;28;20116;-76
2022/08/08 08:18:51;;;;;;;2.83;1.17;;;;;;;26.82;38.24;100662.97;5027732;28;20087;-73
2022/08/08 08:21:19;;;;;;;4.00;1.42;;;;;;;26.71;38.14;100644.47;5027882;28;20063;-73
2022/08/08 08:23:44;;;;;;;4.90;1.38;;;;;;;26.61;38.15;100627.69;5030067;28;20021;-74
2022/08/08 08:26:12;;;;;;;5.13;1.58;;;;;;;26.76;38.01;100652.06;5030600;28;20060;-74
2022/08/08 08:28:38;;;;;;;2.53;1.02;;;;;;;26.82;38.18;100643.69;5030670;28;20025;-74
2022/08/08 08:31:04;;;;;;;1.98;1.02;;;;;;;26.85;37.74;100626.72;5029035;28;20117;-74
2022/08/08 08:33:31;;;;;;;5.05;1.25;;;;;;;27.01;37.67;100639.00;5029002;28;20029;-74
2022/08/08 08:35:57;;;;;;;6.88;1.42;;;;;;;26.89;37.61;100614.16;5025796;28;20033;-74
2022/08/08 08:38:23;;;;;;;5.28;1.42;;;;;;;27.07;37.62;100646.31;5030529;28;20029;-76
2022/08/08 08:40:49;;;;;;;3.97;1.42;;;;;;;27.13;37.72;100653.63;5030403;28;20040;-76
2022/08/08 08:43:16;;;;;;;1.80;1.20;;;;;;;26.94;37.73;100617.06;5045515;28;20025;-76
2022/08/08 08:45:42;;;;;;;1.65;1.15;;;;;;;27.08;37.92;100640.56;5030436;28;20029;-76
2022/08/08 08:48:09;;;;;;;3.38;1.60;;;;;;;27.22;37.99;100653.09;5030367;28;20030;-76
2022/08/08 08:50:37;;;;;;;5.85;1.52;;;;;;;27.31;37.81;100650.88;5030329;28;20084;-76
2022/08/08 08:53:05;;;;;;;1.70;1.02;;;;;;;27.31;36.86;100642.59;5025767;28;20736;-77
2022/08/08 08:55:36;;;;;;;5.53;1.25;;;;;;;27.40;37.14;100639.25;5029049;28;20025;-77
2022/08/08 08:58:02;;;;;;;6.75;1.50;;;;;;;27.48;37.19;100635.34;5029204;28;20029;-76
2022/08/08 09:00:28;;;;;;;4.10;1.50;;;;;;;27.63;36.79;100644.00;5030089;28;20472;-77
2022/08/08 09:02:57;;;;;;;5.63;1.60;;;;;;;27.73;36.53;100633.22;5030070;28;20028;-76
2022/08/08 09:05:25;;;;;;;3.35;1.38;;;;;;;27.78;36.27;100617.63;5040638;28;20048;-76
2022/08/08 09:07:55;;;;;;;4.80;1.63;;;;;;;27.99;35.74;100613.47;5030139;28;20471;-77
2022/08/08 09:10:22;;;;;;;3.78;1.02;;;;;;;28.37;35.85;100649.63;5045020;28;20495;-76
2022/08/08 09:12:49;;;;;;;3.20;1.17;;;;;;;28.51;35.37;100651.09;5028544;28;20083;-77
2022/08/08 09:15:15;;;;;;;2.90;1.10;;;;;;;28.53;35.36;100619.41;5028425;28;20040;-75
2022/08/08 09:17:41;;;;;;;3.85;1.27;;;;;;;28.70;35.02;100630.53;5030067;28;20451;-74
2022/08/08 09:20:12;;;;;;;3.78;1.42;;;;;;;28.79;35.03;100628.22;5045079;28;20017;-74
2022/08/08 09:22:37;;;;;;;9.07;2.25;;;;;;;28.87;34.75;100616.78;5028621;28;20056;-74
2022/08/08 09:25:04;;;;;;;1.70;1.10;;;;;;;28.96;34.67;100623.59;5029708;28;20061;-74
2022/08/08 09:27:30;;;;;;;5.45;1.42;;;;;;;28.97;34.92;100609.53;5027979;28;20045;-74
2022/08/08 09:30:05;;;;;;;8.07;2.20;;;;;;;28.91;35.34;100602.22;5029699;28;20457;-74
2022/08/08 09:32:48;;;;;;;5.63;1.92;;;;;;;29.05;34.99;100614.66;5024029;28;20461;-74
2022/08/08 09:35:21;;;;;;;4.35;1.40;;;;;;;29.12;35.03;100601.56;5029754;28;20028;-74
2022/08/08 09:37:52;;;;;;;3.63;1.40;;;;;;;29.24;35.42;100612.56;5028595;28;20049;-74
2022/08/08 09:40:23;;;;;;;3.88;1.30;;;;;;;29.17;35.70;100581.47;5028180;28;20511;-75
2022/08/08 09:43:01;;;;;;;6.90;1.60;;;;;;;29.40;35.53;100598.72;5029694;28;20549;-74
2022/08/08 09:45:32;;;;;;;2.13;1.20;;;;;;;29.36;35.05;100591.19;5025339;28;20048;-74
2022/08/08 09:48:05;;;;;;;7.32;1.67;;;;;;;29.55;34.44;100598.16;5028274;28;20033;-74
2022/08/08 09:50:31;;;;;;;4.93;1.88;;;;;;;29.32;34.39;100563.22;5023807;28;20064;-74
2022/08/08 09:52:57;;;;;;;3.03;1.67;;;;;;;29.60;34.61;100603.78;5028077;28;20651;-74
2022/08/08 09:55:29;;;;;;;2.05;0.70;;;;;;;29.58;34.31;100594.88;5030680;28;20029;-74
2022/08/08 09:58:14;;;;;;;4.70;1.38;;;;;;;29.69;34.84;100599.53;5032394;28;20030;-77
2022/08/08 10:00:40;;;;;;;3.83;1.40;;;;;;;29.84;35.03;100602.53;5032256;28;20054;-74
2022/08/08 10:03:06;;;;;;;5.53;1.70;;;;;;;29.76;34.48;100578.06;5033655;28;20076;-74
2022/08/08 10:05:36;;;;;;;4.07;1.30;;;;;;;29.98;34.77;100603.88;5033131;28;20432;-74
2022/08/08 10:08:03;;;;;;;3.90;1.30;;;;;;;29.77;33.86;100544.63;5032137;28;20029;-74
2022/08/08 10:10:37;;;;;;;1.30;1.17;;;;;;;30.04;34.21;100577.91;5033086;28;20063;-74
2022/08/08 10:13:20;;;;;;;;;;;;;;;30.14;34.46;100586.34;5032319;28;20078;-79
2022/08/08 10:15:52;;;;;;;2.03;1.10;;;;;;;30.14;33.52;100544.84;5044476;28;19917;-79
2022/08/08 10:18:27;;;;;;;2.30;1.48;;;;;;;30.35;33.69;100575.38;5028007;28;20509;-79
2022/08/08 10:21:00;;;;;;;5.18;1.63;;;;;;;30.32;34.14;100556.50;5031940;28;20029;-79
2022/08/08 10:23:42;;;;;;;6.60;2.10;;;;;;;30.44;34.82;100568.25;5031910;28;20037;-74
2022/08/08 10:26:23;;;;;;;4.47;2.10;;;;;;;30.44;34.51;100561.91;5031623;28;20041;-74
2022/08/08 10:29:18;;;;;;;2.03;1.55;;;;;;;30.50;34.51;100564.47;5029032;28;20048;-74
2022/08/08 10:34:33;;;;;;;2.05;1.40;;;;;;;30.39;34.30;100532.22;5029661;28;20031;-74
2022/08/08 10:36:59;;;;;;;3.00;1.48;;;;;;;30.57;33.71;100542.13;5032997;28;20108;-74
2022/08/08 10:39:27;;;;;;;2.55;1.73;;;;;;;30.59;34.80;100545.44;5031593;28;20570;-74
2022/08/08 10:42:01;;;;;;;3.72;1.58;;;;;;;30.67;35.75;100539.47;5031367;28;20053;-74
2022/08/08 10:44:34;;;;;;;4.97;1.67;;;;;;;30.86;35.97;100549.13;5032489;28;20029;-74
2022/08/08 10:47:14;;;;;;;1.98;1.25;;;;;;;30.92;35.68;100553.63;5032646;28;20048;-74
2022/08/08 10:50:00;;;;;;;10.35;1.73;;;;;;;31.02;36.01;100531.53;5031324;28;20021;-74
2022/08/08 10:52:26;;;;;;;6.07;1.70;;;;;;;31.07;36.28;100553.75;5031056;28;20060;-75
2022/08/08 10:54:54;;;;;;;5.65;2.05;;;;;;;31.09;35.70;100551.56;5032556;28;20029;-79
2022/08/08 10:57:20;;;;;;;14.88;2.30;;;;;;;31.17;35.71;100545.53;5032469;28;20399;-79
2022/08/08 10:59:58;;;;;;;9.30;1.77;;;;;;;31.01;36.24;100540.13;5032616;28;20033;-80
2022/08/08 11:02:31;;;;;;;3.17;1.30;;;;;;;30.87;36.00;100517.53;5031151;28;20033;-79
2022/08/08 11:04:58;;;;;;;9.27;1.92;;;;;;;30.99;36.26;100537.63;5032177;28;20033;-79
2022/08/08 11:07:38;;;;;;;7.22;1.52;;;;;;;31.16;35.89;100554.94;5032467;28;20466;-80
2022/08/08 11:10:12;;;;;;;7.18;1.45;;;;;;;31.09;36.17;100536.84;5032202;28;20032;-80
2022/08/08 11:12:51;;;;;;;;;;;;;;;31.16;35.64;100538.31;5027938;28;20052;-79
2022/08/08 11:15:20;;;;;;;4.65;1.50;;;;;;;31.03;35.52;100522.13;5028272;28;19920;-79
2022/08/08 11:17:46;;;;;;;4.10;1.55;;;;;;;31.11;35.07;100521.63;5031250;28;20403;-79
2022/08/08 11:20:18;;;;;;;4.18;1.60;;;;;;;31.10;34.77;100516.34;5026387;28;20113;-79
2022/08/08 11:22:49;;;;;;;2.83;1.52;;;;;;;31.13;34.74;100521.38;5031106;28;20060;-79
2022/08/08 11:25:15;;;;;;;3.88;1.80;;;;;;;31.04;34.92;100518.25;5027315;28;20498;-79
2022/08/08 11:27:41;;;;;;;3.22;1.58;;;;;;;31.10;34.86;100521.88;5030619;28;20041;-80
2022/08/08 11:30:08;;;;;;;4.55;1.60;;;;;;;31.22;34.86;100531.72;5030617;28;20124;-80
2022/08/08 11:32:40;;;;;;;3.42;1.83;;;;;;;31.30;34.79;100533.22;5030580;28;20450;-80
2022/08/08 11:35:09;;;;;;;5.57;2.08;;;;;;;30.85;34.86;100455.19;5026905;28;20045;-80
2022/08/08 11:37:36;;;;;;;3.85;1.90;;;;;;;31.00;35.31;100475.53;5027356;28;20029;-80
2022/08/08 11:40:04;;;;;;;6.70;1.80;;;;;;;31.26;35.19;100510.69;5031931;28;20033;-79
2022/08/08 11:42:31;;;;;;;3.58;1.63;;;;;;;31.16;35.04;100482.88;5031797;28;20049;-79
2022/08/08 11:44:57;;;;;;;2.45;1.50;;;;;;;31.42;35.39;100525.53;5031903;28;20029;-79
2022/08/08 11:47:24;;;;;;;3.72;1.50;;;;;;;31.29;35.23;100503.78;5046859;28;20060;-80
2022/08/08 11:49:56;;;;;;;5.35;1.77;;;;;;;31.51;34.97;100518.38;5031547;28;20068;-80
2022/08/08 11:52:23;;;;;;;4.63;1.95;;;;;;;31.47;35.19;100518.06;5031598;28;20026;-79
2022/08/08 11:54:49;;;;;;;12.60;2.72;;;;;;;31.40;35.44;100506.38;5031569;28;20059;-80
2022/08/08 11:57:17;;;;;;;8.27;2.22;;;;;;;31.50;35.41;100520.31;5031388;28;20052;-80
2022/08/08 11:59:50;;;;;;;7.72;2.13;;;;;;;31.50;35.60;100531.41;5030051;28;20510;-80